Time;durP1;ratioP1;P1;durP2;ratioP2;P2;SDS_P1;SDS_P2;PMS_P1;PMS_P2;Temp;Humidity;BMP_temperature;BMP_pressure;BME280_temperature;BME280_humidity;BME280_pressure;Samples;Min_cycle;Max_cycle;Signal;HPM_P1;HPM_P2
2022/06/02 00:01:33;;;;;;;0.50;0.50;;;18.00;67.40;;;18.15;52.10;94970.72;4700213;30;20236;-79
2022/06/02 00:04:26;;;;;;;0.50;0.50;;;18.00;68.20;;;18.14;52.72;94970.94;4701133;30;20211;-79
2022/06/02 00:07:20;;;;;;;0.55;0.55;;;18.00;68.10;;;18.07;52.22;94973.75;4699757;30;20244;-79
2022/06/02 00:10:34;;;;;;;0.40;0.40;;;17.90;68.30;;;17.98;52.30;94961.91;4684430;30;20240;-80
2022/06/02 00:13:34;;;;;;;0.50;0.50;;;17.90;68.20;;;17.92;52.51;94953.81;4698715;30;20212;-80
2022/06/02 00:16:10;;;;;;;0.50;0.50;;;17.80;68.00;;;17.85;52.11;94955.81;4677511;30;20293;-79
2022/06/02 00:19:02;;;;;;;0.50;0.50;;;17.70;67.90;;;17.76;52.49;94958.03;4716007;30;20207;-80
2022/06/02 00:21:38;;;;;;;0.50;0.50;;;17.70;67.70;;;17.68;52.29;94955.75;4682756;30;20719;-80
2022/06/02 00:24:34;;;;;;;0.50;0.50;;;17.60;68.00;;;17.58;52.10;94960.84;4685729;30;20259;-80
2022/06/02 00:27:25;;;;;;;0.50;0.50;;;17.40;68.30;;;17.48;52.33;94961.44;4715917;30;20199;-81
2022/06/02 00:30:38;;;;;;;0.52;0.52;;;17.30;68.40;;;17.29;52.56;94960.78;4715180;30;20228;-80
2022/06/02 00:33:40;;;;;;;0.50;0.50;;;17.20;67.80;;;17.18;52.78;94961.59;4679259;30;20291;-81
2022/06/02 00:37:02;;;;;;;0.52;0.52;;;17.10;68.10;;;17.03;53.22;94968.19;4698192;30;20232;-80
2022/06/02 00:39:33;;;;;;;0.50;0.50;;;17.00;68.00;;;16.99;53.29;94969.69;4684123;30;20228;-80
2022/06/02 00:42:30;;;;;;;0.50;0.50;;;16.90;68.30;;;16.88;54.23;94979.22;4698554;30;20252;-79
2022/06/02 00:45:12;;;;;;;0.40;0.40;;;16.80;68.40;;;16.81;54.84;94970.56;4698475;30;20236;-79
2022/06/02 00:48:06;;;;;;;0.50;0.50;;;16.80;69.20;;;16.72;54.90;94971.94;4684020;30;20232;-81
2022/06/02 00:50:57;;;;;;;0.50;0.50;;;16.70;68.90;;;16.63;55.17;94966.97;4684312;30;20607;-81
2022/06/02 00:53:39;;;;;;;0.50;0.50;;;16.70;69.40;;;16.60;55.38;94966.59;4697772;30;20375;-80
2022/06/02 00:59:30;;;;;;;0.52;0.52;;;16.50;69.60;;;16.44;55.67;94966.25;4700337;30;20236;-79
2022/06/02 01:01:58;;;;;;;0.70;0.70;;;16.40;69.60;;;16.38;56.57;94964.50;4697595;30;20263;-80
2022/06/02 01:04:27;;;;;;;0.50;0.50;;;16.40;69.80;;;16.35;55.66;94967.59;4715633;30;20234;-80
2022/06/02 01:07:21;;;;;;;0.60;0.60;;;16.30;69.80;;;16.28;56.23;94973.00;4701054;30;20216;-81
2022/06/02 01:10:33;;;;;;;0.60;0.60;;;16.20;70.00;;;16.22;56.23;94962.50;4716837;30;20227;-80
2022/06/02 01:13:36;;;;;;;0.50;0.50;;;16.20;70.20;;;16.14;57.01;94971.59;4710744;30;20220;-79
2022/06/02 01:16:17;;;;;;;0.60;0.60;;;16.10;70.60;;;16.10;57.26;94965.09;4683616;30;20460;-79
2022/06/02 01:19:31;;;;;;;0.50;0.50;;;16.10;70.60;;;16.04;57.73;94976.59;4697928;30;20204;-80
2022/06/02 01:22:25;;;;;;;0.60;0.60;;;16.00;70.20;;;15.99;57.20;94964.84;4690493;30;20334;-80
2022/06/02 01:25:31;;;;;;;0.70;0.70;;;16.00;71.00;;;15.90;57.72;94960.91;4699181;30;20298;-79
2022/06/02 01:28:31;;;;;;;0.50;0.50;;;16.00;70.30;;;15.89;57.26;94966.41;4708715;30;20616;-80
2022/06/02 01:31:06;;;;;;;0.70;0.70;;;15.90;70.60;;;15.85;57.34;94960.75;4701483;30;20274;-80
2022/06/02 01:34:12;;;;;;;0.40;0.40;;;15.90;71.20;;;15.80;56.68;94963.25;4697781;30;20272;-80
2022/06/02 01:37:09;;;;;;;0.50;0.50;;;15.80;70.80;;;15.75;57.58;94966.56;4698176;30;20603;-80
2022/06/02 01:40:06;;;;;;;0.60;0.60;;;15.70;71.00;;;15.72;57.36;94963.53;4697175;30;20471;-79
2022/06/02 01:43:13;;;;;;;0.80;0.80;;;15.70;70.90;;;15.65;57.48;94963.66;4687230;30;20214;-80
2022/06/02 01:46:14;;;;;;;0.50;0.50;;;15.60;71.40;;;15.64;57.16;94965.47;4700771;30;20235;-80
2022/06/02 01:49:05;;;;;;;0.40;0.40;;;15.60;71.30;;;15.60;57.41;94969.59;4709470;30;20217;-80
2022/06/02 01:51:54;;;;;;;0.50;0.50;;;15.50;71.10;;;15.56;57.89;94968.41;4708072;30;20204;-79
2022/06/02 01:54:52;;;;;;;0.52;0.52;;;15.50;71.30;;;15.53;57.53;94972.28;4709833;30;20234;-80
2022/06/02 01:58:10;;;;;;;0.50;0.50;;;15.50;71.70;;;15.50;57.99;94977.22;4685125;30;20193;-79
2022/06/02 02:00:38;;;;;;;0.50;0.50;;;15.40;71.50;;;15.46;57.74;94974.22;4697898;30;20490;-79
2022/06/02 02:03:21;;;;;;;0.60;0.60;;;15.40;71.00;;;15.42;57.71;94977.53;4715903;30;20207;-79
2022/06/02 02:06:16;;;;;;;0.50;0.50;;;15.40;71.60;;;15.39;57.53;94977.97;4703836;30;20235;-80
2022/06/02 02:09:04;;;;;;;0.50;0.50;;;15.30;71.20;;;15.33;57.37;94983.09;4718128;30;20218;-79
2022/06/02 02:11:56;;;;;;;0.70;0.70;;;15.30;71.70;;;15.31;57.12;94989.63;4725376;30;20220;-80
2022/06/02 02:14:41;;;;;;;0.80;0.80;;;15.20;71.50;;;15.25;57.75;94982.59;4714887;30;20218;-79
2022/06/02 02:17:54;;;;;;;0.70;0.70;;;15.20;71.30;;;15.19;57.44;94985.06;4700697;30;20203;-79
2022/06/02 02:20:55;;;;;;;0.50;0.50;;;15.20;71.70;;;15.12;58.35;94988.81;4706660;30;20227;-79
2022/06/02 02:23:42;;;;;;;0.60;0.60;;;15.10;71.50;;;15.08;58.30;94985.00;4719209;30;20195;-80
2022/06/02 02:26:19;;;;;;;0.60;0.60;;;15.10;71.90;;;15.07;59.05;94988.66;4718249;30;20669;-79
2022/06/02 02:29:14;;;;;;;0.60;0.60;;;15.10;72.10;;;15.05;58.34;94992.31;4717783;30;20211;-79
2022/06/02 02:31:59;;;;;;;0.70;0.70;;;15.00;72.30;;;15.00;58.65;94986.88;4703162;30;20221;-80
2022/06/02 02:35:05;;;;;;;0.70;0.70;;;15.00;71.90;;;14.98;58.34;94988.94;4686461;30;20220;-80
2022/06/02 02:37:55;;;;;;;0.70;0.70;;;15.00;72.00;;;14.94;58.75;94993.03;4701516;30;20246;-79
2022/06/02 02:40:46;;;;;;;0.60;0.60;;;14.90;72.20;;;14.90;59.14;94994.47;4700914;30;20242;-79
2022/06/02 02:43:26;;;;;;;0.70;0.70;;;14.90;72.50;;;14.88;59.17;94994.69;4703251;30;20229;-79
2022/06/02 02:46:35;;;;;;;0.60;0.60;;;14.90;72.40;;;14.82;59.42;94992.13;4717588;30;20321;-80
2022/06/02 02:49:14;;;;;;;0.60;0.60;;;14.90;72.80;;;14.82;59.16;94992.94;4710594;30;20666;-79
2022/06/02 02:52:13;;;;;;;0.70;0.70;;;14.90;72.30;;;14.80;59.34;95002.09;4685824;30;20216;-80
2022/06/02 02:54:51;;;;;;;0.60;0.60;;;14.90;72.70;;;14.83;58.73;95004.28;4689738;30;20227;-79
2022/06/02 02:57:45;;;;;;;0.50;0.50;;;14.80;72.20;;;14.78;59.39;95020.81;4727679;30;20214;-79
2022/06/02 03:00:35;;;;;;;0.60;0.60;;;14.80;72.90;;;14.76;59.43;95022.84;4700125;30;20666;-79
2022/06/02 03:03:20;;;;;;;0.70;0.70;;;14.80;72.60;;;14.68;60.19;95010.72;4699835;30;20224;-80
2022/06/02 03:06:02;;;;;;;0.60;0.60;;;14.80;72.60;;;14.68;60.36;95015.19;4724601;30;20236;-80
2022/06/02 03:09:02;;;;;;;0.60;0.60;;;14.70;72.90;;;14.65;59.92;95026.97;4700473;30;20215;-79
2022/06/02 03:11:54;;;;;;;0.60;0.60;;;14.70;72.80;;;14.62;59.80;95024.72;4699855;30;20208;-80
2022/06/02 03:15:17;;;;;;;0.60;0.60;;;14.70;72.60;;;14.62;59.76;95029.22;4714508;30;20231;-79
2022/06/02 03:17:48;;;;;;;0.60;0.60;;;14.70;72.70;;;14.60;60.05;95024.16;4693021;30;20750;-80
2022/06/02 03:21:09;;;;;;;0.60;0.60;;;14.60;72.60;;;14.58;60.42;95036.75;4671126;30;20236;-79
2022/06/02 03:24:06;;;;;;;0.50;0.50;;;14.60;73.00;;;14.56;60.29;95036.13;4712452;30;20212;-79
2022/06/02 03:27:02;;;;;;;0.70;0.70;;;14.60;73.00;;;14.56;60.04;95039.59;4712840;30;20368;-79
2022/06/02 03:29:52;;;;;;;0.50;0.50;;;14.60;73.00;;;14.57;59.83;95043.03;4692674;30;20246;-79
2022/06/02 03:32:41;;;;;;;0.70;0.70;;;14.70;73.40;;;14.59;60.73;95041.00;4703915;30;20285;-79
2022/06/02 03:35:39;;;;;;;0.70;0.70;;;14.60;73.50;;;14.58;60.17;95040.19;4712093;30;20227;-79
2022/06/02 03:38:33;;;;;;;0.50;0.50;;;14.60;73.40;;;14.61;60.24;95051.34;4723703;30;20223;-79
2022/06/02 03:41:09;;;;;;;0.70;0.70;;;14.60;73.20;;;14.63;60.49;95050.09;4735599;30;20612;-79
2022/06/02 03:44:00;;;;;;;0.60;0.60;;;14.60;73.50;;;14.66;60.21;95047.06;4718991;30;20216;-79
2022/06/02 03:46:48;;;;;;;0.70;0.70;;;14.70;73.60;;;14.68;60.26;95055.59;4718552;30;20216;-79
2022/06/02 03:50:01;;;;;;;0.80;0.80;;;14.70;73.50;;;14.66;60.90;95047.06;4705160;30;20280;-79
2022/06/02 03:52:57;;;;;;;0.70;0.70;;;14.70;73.60;;;14.67;60.95;95053.97;4694151;30;20215;-80
2022/06/02 03:55:37;;;;;;;0.70;0.70;;;14.70;73.70;;;14.69;60.85;95059.03;4705998;30;20329;-80
2022/06/02 03:58:33;;;;;;;0.70;0.70;;;14.80;74.00;;;14.69;60.80;95059.03;4713573;30;20250;-81
2022/06/02 04:01:05;;;;;;;0.70;0.70;;;14.80;73.90;;;14.74;61.08;95051.28;4710642;30;20820;-80
2022/06/02 04:03:57;;;;;;;0.60;0.60;;;14.90;74.00;;;14.78;60.95;95065.69;4715173;30;20275;-79
2022/06/02 04:06:36;;;;;;;0.50;0.50;;;14.80;73.80;;;14.82;60.58;95061.59;4708460;30;20673;-79
2022/06/02 04:09:31;;;;;;;0.60;0.60;;;14.90;74.00;;;14.86;61.38;95065.41;4699917;30;20206;-80
2022/06/02 04:16:11;;;;;;;0.50;0.50;;;15.00;74.20;;;14.95;60.71;95070.44;4701532;30;20668;-79
2022/06/02 04:18:49;;;;;;;0.50;0.50;;;15.00;74.00;;;15.01;60.99;95066.91;4712816;30;20200;-80
2022/06/02 04:21:44;;;;;;;0.70;0.70;;;15.10;74.20;;;15.07;61.16;95078.47;4697292;30;20231;-80
2022/06/02 04:24:39;;;;;;;0.60;0.60;;;15.20;74.00;;;15.11;60.90;95074.38;4699016;30;20220;-79
2022/06/02 04:27:12;;;;;;;0.70;0.70;;;15.30;74.10;;;15.21;60.84;95094.00;4716048;30;20192;-81
2022/06/02 04:30:06;;;;;;;0.50;0.50;;;15.30;74.00;;;15.28;60.34;95091.31;4701194;30;20243;-80
2022/06/02 04:32:40;;;;;;;0.50;0.50;;;15.30;73.90;;;15.36;60.61;95098.13;4699727;30;20235;-80
2022/06/02 04:35:26;;;;;;;0.52;0.52;;;15.30;73.80;;;15.44;60.33;95104.97;4712518;30;20602;-80
2022/06/02 04:38:22;;;;;;;0.50;0.50;;;15.40;73.90;;;15.48;60.11;95096.41;4697711;30;20235;-81
2022/06/02 04:41:03;;;;;;;0.70;0.70;;;15.50;73.80;;;15.55;59.95;95079.66;4694832;30;20309;-79
2022/06/02 04:44:12;;;;;;;0.50;0.50;;;15.60;74.00;;;15.65;59.94;95093.19;4713340;30;20223;-81
2022/06/02 04:47:14;;;;;;;0.70;0.70;;;15.70;73.70;;;15.71;59.52;95087.03;4711937;30;20212;-82
2022/06/02 04:50:25;;;;;;;0.57;0.57;;;15.70;73.80;;;15.79;59.83;95093.84;4698291;30;20579;-81
2022/06/02 04:53:26;;;;;;;0.52;0.52;;;15.80;73.60;;;15.85;59.61;95106.22;4689091;30;20213;-80
2022/06/02 04:56:19;;;;;;;0.50;0.50;;;15.80;73.50;;;15.90;59.62;95114.31;4698230;30;20309;-81
2022/06/02 04:59:25;;;;;;;0.50;0.50;;;15.90;73.60;;;15.96;60.06;95102.06;4687945;30;20225;-80
2022/06/02 05:02:16;;;;;;;0.50;0.50;;;16.00;73.70;;;16.02;59.59;95109.09;4687944;30;20665;-81
2022/06/02 05:05:15;;;;;;;0.50;0.50;;;16.10;73.70;;;16.10;59.36;95114.09;4691413;30;20235;-80
2022/06/02 05:07:57;;;;;;;0.40;0.40;;;16.10;73.40;;;16.17;59.68;95117.47;4693815;30;20223;-80
2022/06/02 05:10:46;;;;;;;0.50;0.50;;;16.20;73.40;;;16.23;59.45;95114.97;4683791;30;20283;-81
2022/06/02 05:13:26;;;;;;;0.50;0.50;;;16.30;73.50;;;16.31;59.36;95115.47;4697202;30;20216;-81
2022/06/02 05:16:26;;;;;;;0.50;0.50;;;16.40;73.50;;;16.39;59.21;95118.84;4698155;30;20232;-80
2022/06/02 05:19:29;;;;;;;0.52;0.52;;;16.40;73.20;;;16.46;59.28;95120.38;4687649;30;20235;-80
2022/06/02 05:22:16;;;;;;;0.50;0.50;;;16.50;73.40;;;16.56;58.95;95125.13;4704594;30;20233;-81
2022/06/02 05:25:30;;;;;;;0.45;0.45;;;16.60;73.30;;;16.63;58.94;95122.41;4700949;30;20923;-80
2022/06/02 05:28:18;;;;;;;0.40;0.40;;;16.60;73.10;;;16.75;58.98;95125.91;4688845;30;20212;-81
2022/06/02 05:31:24;;;;;;;0.50;0.50;;;16.70;73.20;;;16.81;58.64;95129.50;4703328;30;20687;-81
2022/06/02 05:34:24;;;;;;;0.45;0.45;;;16.80;73.00;;;16.88;58.73;95129.41;4705581;30;20220;-80
2022/06/02 05:37:36;;;;;;;0.50;0.50;;;16.90;73.10;;;16.98;58.58;95131.53;4686327;30;20208;-80
2022/06/02 05:40:38;;;;;;;0.50;0.50;;;17.00;73.00;;;17.06;58.49;95132.00;4685434;30;20239;-79
2022/06/02 05:43:25;;;;;;;0.50;0.50;;;17.10;72.80;;;17.14;57.95;95128.25;4712635;30;20266;-81
2022/06/02 05:46:09;;;;;;;0.50;0.50;;;17.20;72.80;;;17.19;57.87;95128.34;4701177;30;20235;-80
2022/06/02 05:48:41;;;;;;;0.50;0.50;;;17.20;72.50;;;17.26;58.17;95141.53;4729969;30;20542;-79
2022/06/02 05:51:29;;;;;;;0.50;0.50;;;17.30;72.50;;;17.33;57.47;95136.88;4729756;30;20239;-81
2022/06/02 05:54:41;;;;;;;0.50;0.50;;;17.30;72.20;;;17.43;57.56;95149.59;4715139;30;20607;-81
2022/06/02 05:57:55;;;;;;;0.50;0.50;;;17.40;72.10;;;17.50;57.37;95158.25;4715508;30;20216;-81
2022/06/02 06:01:06;;;;;;;0.47;0.47;;;17.60;72.10;;;17.55;56.95;95153.09;4727618;30;20243;-79
2022/06/02 06:03:39;;;;;;;0.50;0.50;;;17.70;71.70;;;17.65;56.70;95151.69;4701028;30;20730;-80
2022/06/02 06:06:31;;;;;;;0.50;0.50;;;17.80;71.80;;;17.72;56.41;95160.34;4700879;30;20645;-81
2022/06/02 06:09:28;;;;;;;0.52;0.52;;;17.70;71.30;;;17.82;56.62;95157.94;4686769;30;20215;-80
2022/06/02 06:12:30;;;;;;;0.50;0.50;;;17.80;71.50;;;17.93;56.71;95157.09;4709275;30;20285;-79
2022/06/02 06:15:23;;;;;;;0.50;0.50;;;17.90;71.60;;;18.05;56.74;95161.63;4698112;30;20223;-80
2022/06/02 06:18:08;;;;;;;0.40;0.40;;;18.00;71.30;;;18.15;56.55;95151.25;4712877;30;20636;-79
2022/06/02 06:20:50;;;;;;;0.43;0.43;;;18.10;71.30;;;18.26;56.27;95164.72;4708481;30;20227;-79
2022/06/02 06:23:42;;;;;;;0.50;0.50;;;18.20;71.50;;;18.36;55.99;95164.94;4714166;30;20227;-79
2022/06/02 06:26:35;;;;;;;0.43;0.43;;;18.30;71.50;;;18.44;55.93;95169.84;4714997;30;20239;-80
2022/06/02 06:29:40;;;;;;;0.40;0.40;;;18.40;70.80;;;18.49;55.14;95164.69;4709489;30;20203;-79
2022/06/02 06:32:21;;;;;;;0.50;0.50;;;18.60;70.60;;;18.58;55.23;95172.25;4706255;30;20306;-80
2022/06/02 06:35:39;;;;;;;0.50;0.50;;;18.60;70.00;;;18.64;55.19;95173.97;4691451;30;20303;-80
2022/06/02 06:39:05;;;;;;;0.40;0.40;;;18.60;70.50;;;18.71;55.03;95169.31;4711342;30;20299;-79
2022/06/02 06:41:59;;;;;;;0.50;0.50;;;18.70;70.10;;;18.77;55.08;95176.34;4682355;30;20204;-79
2022/06/02 06:44:41;;;;;;;0.50;0.50;;;18.80;70.20;;;18.86;54.77;95193.53;4696635;30;20313;-79
2022/06/02 06:47:42;;;;;;;0.50;0.50;;;18.90;69.90;;;18.95;54.70;95201.97;4713248;30;20208;-80
2022/06/02 06:50:23;;;;;;;0.50;0.50;;;18.90;69.60;;;18.97;54.11;95188.44;4714950;30;20227;-79
2022/06/02 06:53:41;;;;;;;0.50;0.50;;;19.00;69.50;;;18.96;53.41;95200.13;4699399;30;20199;-78
2022/06/02 06:56:30;;;;;;;0.50;0.50;;;19.10;69.20;;;19.04;53.30;95205.88;4686534;30;20244;-80
2022/06/02 06:59:39;;;;;;;0.47;0.47;;;19.10;68.60;;;19.08;53.67;95200.88;4700021;30;20227;-79
2022/06/02 07:02:25;;;;;;;0.40;0.40;;;19.20;69.30;;;19.19;53.86;95210.66;4714301;30;20246;-80
2022/06/02 07:05:17;;;;;;;0.40;0.40;;;19.20;69.40;;;19.28;54.12;95208.41;4699922;30;20235;-80
2022/06/02 07:08:24;;;;;;;0.40;0.40;;;19.30;69.60;;;19.31;53.32;95215.09;4699813;30;20271;-80
2022/06/02 07:14:27;;;;;;;0.45;0.45;;;19.50;69.40;;;19.35;52.84;95198.41;4701014;30;20220;-79
2022/06/02 07:16:57;;;;;;;0.50;0.50;;;19.50;68.80;;;19.48;53.61;95202.63;4698844;30;20295;-79
2022/06/02 07:19:40;;;;;;;0.40;0.40;;;19.60;68.90;;;19.52;53.35;95195.78;4693549;30;20239;-80
2022/06/02 07:22:47;;;;;;;0.40;0.40;;;19.60;68.70;;;19.58;53.67;95202.00;4721349;30;20224;-80
2022/06/02 07:25:26;;;;;;;0.50;0.50;;;19.70;68.90;;;19.65;53.39;95207.16;4725125;30;20302;-79
2022/06/02 07:28:05;;;;;;;0.50;0.50;;;19.70;68.80;;;19.70;53.29;95201.09;4685100;30;20315;-80
2022/06/02 07:30:59;;;;;;;0.40;0.40;;;19.80;68.50;;;19.71;53.07;95211.50;4699740;30;20227;-79
2022/06/02 07:33:53;;;;;;;0.45;0.45;;;19.80;68.60;;;19.77;53.07;95207.06;4684907;30;20214;-80
2022/06/02 07:36:41;;;;;;;0.40;0.40;;;19.90;69.00;;;19.83;53.15;95204.28;4685045;30;20688;-80
2022/06/02 07:39:48;;;;;;;0.40;0.40;;;19.90;68.70;;;19.92;53.43;95203.88;4699356;30;20224;-79
2022/06/02 07:42:55;;;;;;;0.40;0.40;;;20.00;68.90;;;19.98;52.06;95210.88;4685111;30;20253;-80
2022/06/02 07:45:25;;;;;;;0.40;0.40;;;20.00;68.00;;;20.03;51.99;95205.66;4684918;30;20259;-80
2022/06/02 07:48:07;;;;;;;0.40;0.40;;;20.10;67.70;;;20.08;52.90;95213.69;4699148;30;20212;-81
2022/06/02 07:50:39;;;;;;;0.40;0.40;;;20.10;68.50;;;20.20;53.56;95221.59;4700655;30;20728;-80
2022/06/02 07:53:21;;;;;;;0.40;0.40;;;20.20;69.30;;;20.30;53.16;95219.06;4685227;30;20244;-80
2022/06/02 07:56:11;;;;;;;0.40;0.40;;;20.30;68.90;;;20.42;53.31;95221.63;4688423;30;20301;-79
2022/06/02 07:58:54;;;;;;;0.40;0.40;;;20.40;69.10;;;20.54;53.52;95212.72;4689328;30;20205;-80
2022/06/02 08:01:21;;;;;;;0.40;0.40;;;20.40;69.10;;;20.67;53.25;95235.53;4704980;30;20723;-78
2022/06/02 08:04:08;;;;;;;0.30;0.30;;;20.60;68.80;;;20.74;52.62;95225.53;4700335;30;20243;-79
2022/06/02 08:06:53;;;;;;;0.50;0.50;;;20.70;68.70;;;20.82;53.01;95224.28;4695821;30;20214;-80
2022/06/02 08:10:01;;;;;;;0.40;0.40;;;20.80;68.80;;;20.89;52.75;95214.22;4704789;30;20310;-79
2022/06/02 08:13:19;;;;;;;0.40;0.40;;;20.90;68.40;;;20.95;52.66;95223.91;4720147;30;20657;-80
2022/06/02 08:16:06;;;;;;;0.70;0.70;;;20.90;68.40;;;20.99;52.05;95225.00;4705734;30;20708;-80
2022/06/02 08:19:04;;;;;;;0.40;0.40;;;21.00;67.80;;;21.07;52.33;95232.56;4706618;30;20261;-79
2022/06/02 08:21:41;;;;;;;0.40;0.40;;;21.10;68.20;;;21.16;52.38;95221.44;4722852;30;20282;-80
2022/06/02 08:24:36;;;;;;;0.40;0.40;;;21.10;68.10;;;21.27;52.08;95223.16;4718491;30;20228;-80
2022/06/02 08:27:46;;;;;;;0.40;0.40;;;21.20;68.40;;;21.35;52.33;95222.72;4718519;30;20209;-80
2022/06/02 08:31:00;;;;;;;0.40;0.40;;;21.30;68.20;;;21.41;51.93;95232.38;4718802;30;20663;-80
2022/06/02 08:33:30;;;;;;;0.40;0.40;;;21.40;67.90;;;21.50;51.48;95231.91;4704087;30;20681;-80
2022/06/02 08:36:17;;;;;;;0.40;0.40;;;21.50;67.20;;;21.56;51.22;95236.25;4702855;30;20241;-80
2022/06/02 08:39:27;;;;;;;0.30;0.30;;;21.50;67.20;;;21.60;51.10;95229.34;4719826;30;20280;-80
2022/06/02 08:42:27;;;;;;;0.40;0.40;;;21.60;67.40;;;21.69;50.70;95240.38;4704247;30;20201;-79
2022/06/02 08:45:02;;;;;;;0.40;0.40;;;21.70;67.90;;;21.70;49.44;95239.31;4715844;30;20308;-79
2022/06/02 08:48:13;;;;;;;0.40;0.40;;;21.70;65.70;;;21.72;49.55;95243.34;4721631;30;20680;-80
2022/06/02 08:51:35;;;;;;;0.30;0.30;;;21.80;66.00;;;21.74;49.95;95249.25;4717762;30;20327;-80
2022/06/02 08:54:40;;;;;;;0.40;0.40;;;21.80;65.90;;;21.76;49.69;95232.97;4707999;30;20616;-79
2022/06/02 08:57:40;;;;;;;0.60;0.60;;;21.90;65.40;;;21.83;50.16;95238.91;4697947;30;20843;-79
2022/06/02 09:00:36;;;;;;;0.40;0.40;;;21.90;66.20;;;21.92;50.12;95236.56;4698798;30;20237;-80
2022/06/02 09:03:36;;;;;;;0.40;0.40;;;21.90;65.90;;;22.03;49.86;95240.94;4708027;30;20250;-80
2022/06/02 09:06:59;;;;;;;0.40;0.40;;;22.00;66.40;;;22.11;49.37;95252.19;4724238;30;20793;-79
2022/06/02 09:09:35;;;;;;;0.30;0.30;;;22.10;65.90;;;22.19;49.49;95251.69;4713026;30;20233;-81
2022/06/02 09:12:59;;;;;;;0.38;0.38;;;22.20;66.20;;;22.30;49.01;95247.22;4713290;30;20676;-80
2022/06/02 09:15:57;;;;;;;0.30;0.30;;;22.20;65.20;;;22.42;49.02;95257.78;4697720;30;20728;-81
2022/06/02 09:19:12;;;;;;;0.40;0.40;;;22.40;65.40;;;22.50;48.20;95250.06;4684627;30;20208;-80
2022/06/02 09:22:27;;;;;;;0.40;0.40;;;22.40;65.40;;;22.62;47.99;95251.72;4715738;30;20208;-81
2022/06/02 09:25:21;;;;;;;0.50;0.50;;;22.60;64.80;;;22.71;47.50;95258.97;4715426;30;20235;-80
2022/06/02 09:28:30;;;;;;;0.60;0.60;;;22.70;64.50;;;22.84;46.98;95262.28;4715716;30;20298;-81
2022/06/02 09:31:35;;;;;;;0.40;0.40;;;22.80;63.70;;;22.96;46.91;95262.84;4685367;30;20237;-80
2022/06/02 09:34:46;;;;;;;0.35;0.35;;;22.90;63.90;;;23.08;46.95;95261.81;4713996;30;20311;-81
2022/06/02 09:37:40;;;;;;;0.30;0.30;;;23.00;63.90;;;23.21;46.57;95261.34;4708850;30;20567;-81
2022/06/02 09:40:34;;;;;;;0.30;0.30;;;23.20;63.20;;;23.32;46.42;95264.88;4724840;30;20260;-81
2022/06/02 09:43:42;;;;;;;0.60;0.60;;;23.30;63.30;;;23.41;45.94;95265.16;4709792;30;20246;-80
2022/06/02 09:46:48;;;;;;;0.40;0.40;;;23.30;61.70;;;23.48;46.01;95263.81;4731064;30;20291;-81
2022/06/02 09:50:02;;;;;;;0.32;0.32;;;23.40;63.10;;;23.54;44.67;95269.19;4723608;30;20244;-81
2022/06/02 09:53:11;;;;;;;0.30;0.30;;;23.50;62.50;;;23.60;44.98;95266.25;4706733;30;20661;-80
2022/06/02 09:56:50;;;;;;;0.30;0.30;;;23.60;62.00;;;23.70;45.11;95264.66;4723778;30;20714;-81
2022/06/02 09:59:40;;;;;;;0.40;0.40;;;23.70;62.80;;;23.83;44.86;95267.63;4710358;30;20302;-81
2022/06/02 10:02:42;;;;;;;0.60;0.60;;;23.80;62.20;;;24.01;44.27;95262.03;4706728;30;20242;-80
2022/06/02 10:05:19;;;;;;;0.40;0.40;;;23.90;62.10;;;24.23;44.18;95267.09;4694343;30;20231;-81
2022/06/02 10:08:24;;;;;;;0.30;0.30;;;24.10;61.80;;;24.44;43.80;95271.34;4699523;30;20241;-81
2022/06/02 10:11:04;;;;;;;0.40;0.40;;;24.20;61.50;;;24.62;43.06;95263.84;4707784;30;20789;-81
2022/06/02 10:13:54;;;;;;;0.57;0.57;;;24.50;60.80;;;24.73;41.40;95261.94;4697471;30;20307;-82
2022/06/02 10:16:33;;;;;;;0.30;0.30;;;24.60;60.00;;;24.78;41.91;95267.31;4698282;30;20235;-81
2022/06/02 10:19:55;;;;;;;0.40;0.40;;;24.70;60.10;;;24.83;41.50;95267.28;4709059;30;20638;-80
2022/06/02 10:22:32;;;;;;;0.30;0.30;;;24.80;58.40;;;24.83;40.51;95261.09;4672563;30;20303;-80
2022/06/02 10:25:47;;;;;;;0.40;0.40;;;24.90;58.30;;;24.83;40.91;95259.22;4708960;30;20316;-81
2022/06/02 10:28:55;;;;;;;0.30;0.30;;;25.00;59.50;;;24.88;41.26;95271.81;4707291;30;20232;-81
2022/06/02 10:31:59;;;;;;;0.35;0.35;;;25.00;59.50;;;24.97;41.70;95270.16;4695710;30;20303;-80
2022/06/02 10:35:04;;;;;;;0.35;0.35;;;25.00;60.00;;;25.13;41.86;95260.16;4715058;30;20238;-81
2022/06/02 10:38:00;;;;;;;0.40;0.40;;;25.10;59.00;;;25.35;42.26;95264.34;4714983;30;20217;-81
2022/06/02 10:40:56;;;;;;;0.30;0.30;;;25.30;59.90;;;25.59;41.96;95259.13;4713744;30;20317;-81
2022/06/02 10:43:58;;;;;;;0.40;0.40;;;25.50;59.50;;;25.84;41.29;95260.03;4699050;30;20320;-81
2022/06/02 10:46:58;;;;;;;0.30;0.30;;;25.70;59.70;;;26.02;40.97;95267.44;4699646;30;20262;-81
2022/06/02 10:49:44;;;;;;;0.50;0.50;;;25.90;55.80;;;26.07;39.94;95257.75;4698762;30;20328;-81
2022/06/02 10:53:12;;;;;;;0.30;0.30;;;26.10;57.20;;;26.00;39.84;95253.47;4685929;30;20218;-80
2022/06/02 10:56:08;;;;;;;0.30;0.30;;;26.10;57.00;;;25.96;39.51;95252.41;4700107;30;20230;-81
2022/06/02 10:58:50;;;;;;;0.35;0.35;;;26.10;56.60;;;25.94;39.56;95259.16;4700314;30;20218;-81
2022/06/02 11:01:37;;;;;;;0.30;0.30;;;26.10;56.40;;;25.97;40.36;95254.00;4700087;30;20234;-81
2022/06/02 11:04:58;;;;;;;0.30;0.30;;;26.10;57.80;;;26.06;39.20;95246.16;4685732;30;20242;-81
2022/06/02 11:07:47;;;;;;;0.30;0.30;;;26.20;52.70;;;26.04;35.25;95259.88;4694615;30;20249;-80
2022/06/02 11:10:42;;;;;;;0.30;0.30;;;26.20;52.80;;;26.07;37.20;95247.00;4699834;30;20245;-81
2022/06/02 11:13:42;;;;;;;0.30;0.30;;;26.30;53.70;;;26.16;37.12;95248.78;4699969;30;20203;-81
2022/06/02 11:17:01;;;;;;;0.30;0.30;;;26.30;54.50;;;26.21;36.62;95242.56;4700852;30;20191;-80
2022/06/02 11:19:52;;;;;;;0.30;0.30;;;26.40;53.70;;;26.21;37.62;95247.94;4699670;30;20234;-81
2022/06/02 11:23:00;;;;;;;0.30;0.30;;;26.30;54.20;;;26.14;38.03;95242.09;4699620;30;20667;-81
2022/06/02 11:26:27;;;;;;;0.30;0.30;;;26.30;55.10;;;25.96;37.19;95243.56;4699480;30;20290;-81
2022/06/02 11:29:25;;;;;;;0.30;0.30;;;26.30;54.60;;;25.87;37.00;95235.31;4700739;30;20383;-81
2022/06/02 11:32:29;;;;;;;0.30;0.30;;;26.20;53.30;;;25.87;37.80;95228.03;4700751;30;20278;-81
2022/06/02 11:35:52;;;;;;;0.30;0.30;;;26.10;54.40;;;26.00;38.06;95231.16;4700935;30;20252;-81
2022/06/02 11:38:36;;;;;;;0.30;0.30;;;26.10;54.90;;;26.15;37.81;95224.88;4699337;30;20292;-80
2022/06/02 11:41:47;;;;;;;0.32;0.32;;;26.20;54.30;;;26.22;37.28;95219.97;4699315;30;20234;-80
2022/06/02 11:44:52;;;;;;;0.30;0.30;;;26.30;55.50;;;26.23;36.72;95224.25;4685316;30;20340;-81
2022/06/02 11:47:52;;;;;;;0.30;0.30;;;26.30;53.50;;;26.20;36.83;95222.94;4699524;30;20231;-82
2022/06/02 11:51:08;;;;;;;0.40;0.40;;;26.30;52.90;;;26.17;37.35;95230.75;4699566;30;20233;-81
2022/06/02 11:54:25;;;;;;;0.30;0.30;;;26.30;54.10;;;26.19;37.33;95225.91;4706532;30;20210;-81
2022/06/02 11:57:45;;;;;;;0.30;0.30;;;26.30;54.60;;;26.18;36.85;95233.19;4708436;30;20282;-82
2022/06/02 12:01:06;;;;;;;0.30;0.30;;;26.30;51.40;;;26.18;36.82;95227.81;4676090;30;20270;-81
2022/06/02 12:04:17;;;;;;;0.30;0.30;;;26.30;53.10;;;26.23;36.96;95229.63;4682943;30;20270;-81
2022/06/02 12:07:19;;;;;;;0.30;0.30;;;26.30;53.20;;;26.21;35.17;95219.16;4714180;30;20727;-80
2022/06/02 12:10:10;;;;;;;0.30;0.30;;;26.30;50.80;;;26.27;35.82;95222.59;4706715;30;22112;-81
2022/06/02 12:13:05;;;;;;;0.30;0.30;;;26.30;51.80;;;26.35;36.21;95226.56;4712000;30;20576;-80
2022/06/02 12:16:10;;;;;;;0.30;0.30;;;26.40;52.10;;;26.48;36.14;95225.09;4698229;30;20254;-80
2022/06/02 12:19:35;;;;;;;0.30;0.30;;;26.40;52.80;;;26.68;36.54;95219.50;4724565;30;20730;-80
2022/06/02 12:22:31;;;;;;;0.30;0.30;;;26.60;53.40;;;26.95;36.66;95215.44;4666188;30;20290;-80
2022/06/02 12:25:19;;;;;;;0.30;0.30;;;26.90;53.30;;;27.34;36.40;95224.31;4679451;30;20332;-79
2022/06/02 12:28:24;;;;;;;0.30;0.30;;;27.30;52.40;;;27.87;37.54;95223.28;4703848;30;20243;-79
2022/06/02 12:31:36;;;;;;;0.30;0.30;;;27.90;53.70;;;28.44;36.27;95223.16;4704666;30;20229;-79